createdAt,value
2017-02-17T00:00:33.034Z,1020.87
2017-02-17T00:01:44.671Z,1020.8
2017-02-17T00:02:56.095Z,1020.79
2017-02-17T00:04:07.542Z,1020.79
2017-02-17T00:05:18.967Z,1020.79
2017-02-17T00:06:30.665Z,1020.73
2017-02-17T00:07:42.110Z,1020.74
2017-02-17T00:08:53.951Z,1020.73
2017-02-17T00:10:05.399Z,1020.72
2017-02-17T00:11:16.840Z,1020.71
2017-02-17T00:12:28.284Z,1020.66
2017-02-17T00:13:39.734Z,1020.61
2017-02-17T00:14:51.186Z,1020.62
2017-02-17T00:16:02.638Z,1020.62
2017-02-17T00:17:14.139Z,1020.61
2017-02-17T00:18:25.567Z,1020.65
2017-02-17T00:19:37.000Z,1020.59
2017-02-17T00:20:48.440Z,1020.57
2017-02-17T00:21:59.877Z,1020.56
2017-02-17T00:23:11.512Z,1020.56
2017-02-17T00:24:23.141Z,1020.62
2017-02-17T00:25:34.575Z,1020.58
2017-02-17T00:26:46.021Z,1020.58
2017-02-17T00:27:57.513Z,1020.56
2017-02-17T00:29:08.929Z,1020.56
2017-02-17T00:30:20.380Z,1020.52
2017-02-17T00:31:31.826Z,1020.53
2017-02-17T00:32:43.474Z,1020.47
2017-02-17T00:33:54.942Z,1020.48
2017-02-17T00:35:06.368Z,1020.48
2017-02-17T00:36:17.788Z,1020.5
2017-02-17T00:37:29.246Z,1020.5
2017-02-17T00:38:40.676Z,1020.5
2017-02-17T00:39:52.194Z,1020.46
2017-02-17T00:41:03.667Z,1020.48
2017-02-17T00:42:15.104Z,1020.43
2017-02-17T00:43:26.547Z,1020.45
2017-02-17T00:44:37.966Z,1020.42
2017-02-17T00:45:49.416Z,1020.41
2017-02-17T00:47:00.844Z,1020.45
2017-02-17T00:48:12.292Z,1020.45
2017-02-17T00:49:23.763Z,1020.43
2017-02-17T00:50:35.207Z,1020.42
2017-02-17T00:51:46.654Z,1020.44
2017-02-17T00:52:58.100Z,1020.39
2017-02-17T00:54:09.547Z,1020.41
2017-02-17T00:55:20.969Z,1020.43
2017-02-17T00:56:32.824Z,1020.47
2017-02-17T00:57:44.269Z,1020.42
2017-02-17T00:58:55.735Z,1020.44
2017-02-17T01:00:07.231Z,1020.41
2017-02-17T01:01:18.669Z,1020.41
2017-02-17T01:02:30.111Z,1020.41
2017-02-17T01:03:41.560Z,1020.42
2017-02-17T01:04:53.211Z,1020.41
2017-02-17T01:06:04.646Z,1020.39
2017-02-17T01:07:16.083Z,1020.4
2017-02-17T01:08:27.740Z,1020.35
2017-02-17T01:09:39.180Z,1020.34
2017-02-17T01:10:50.716Z,1020.3
2017-02-17T01:12:02.153Z,1020.3
2017-02-17T01:13:13.576Z,1020.31
2017-02-17T01:14:25.042Z,1020.29
2017-02-17T01:15:36.674Z,1020.3
2017-02-17T01:16:48.163Z,1020.29
2017-02-17T01:17:59.617Z,1020.3
2017-02-17T01:19:11.068Z,1020.34
2017-02-17T01:20:22.505Z,1020.32
2017-02-17T01:21:33.951Z,1020.33
2017-02-17T01:22:45.801Z,1020.35
2017-02-17T01:23:57.445Z,1020.33
2017-02-17T01:25:09.088Z,1020.35
2017-02-17T01:26:20.530Z,1020.33
2017-02-17T01:27:31.974Z,1020.32
2017-02-17T01:28:43.444Z,1020.31
2017-02-17T01:29:54.872Z,1020.26
2017-02-17T01:31:06.300Z,1020.28
2017-02-17T01:32:17.753Z,1020.32
2017-02-17T01:33:29.214Z,1020.28
2017-02-17T01:34:40.656Z,1020.23
2017-02-17T01:35:52.285Z,1020.26
2017-02-17T01:37:03.730Z,1020.19
2017-02-17T01:38:15.232Z,1020.26
2017-02-17T01:39:26.703Z,1020.27
2017-02-17T01:40:38.156Z,1020.27
2017-02-17T01:41:49.607Z,1020.26
2017-02-17T01:43:01.042Z,1020.24
2017-02-17T01:44:12.673Z,1020.2
2017-02-17T01:45:24.109Z,1020.26
2017-02-17T01:46:35.581Z,1020.21
2017-02-17T01:47:47.016Z,1020.23
2017-02-17T01:48:58.901Z,1020.2
2017-02-17T01:50:10.339Z,1020.22
2017-02-17T01:51:21.797Z,1020.21
2017-02-17T01:52:33.234Z,1020.14
2017-02-17T01:53:44.870Z,1020.14
2017-02-17T01:54:56.355Z,1020.1
2017-02-17T01:56:07.805Z,1020.1
2017-02-17T01:57:19.252Z,1020.07
2017-02-17T01:58:30.700Z,1020.06
2017-02-17T01:59:42.185Z,1020.05
2017-02-17T02:00:53.635Z,1019.99
2017-02-17T02:02:05.078Z,1020.01
2017-02-17T02:03:16.524Z,1019.97
2017-02-17T02:04:27.970Z,1019.96
2017-02-17T02:05:39.421Z,1019.97
2017-02-17T02:06:50.906Z,1020.01
2017-02-17T02:08:02.354Z,1019.99
2017-02-17T02:09:14.016Z,1019.97
2017-02-17T02:10:25.442Z,1019.97
2017-02-17T02:11:36.919Z,1019.99
2017-02-17T02:12:48.356Z,1019.91
2017-02-17T02:13:59.805Z,1019.9
2017-02-17T02:15:11.263Z,1019.84
2017-02-17T02:16:22.685Z,1019.77
2017-02-17T02:17:34.136Z,1019.79
2017-02-17T02:18:45.775Z,1019.85
2017-02-17T02:19:57.225Z,1019.79
2017-02-17T02:21:08.710Z,1019.76
2017-02-17T02:22:20.160Z,1019.73
2017-02-17T02:23:31.590Z,1019.73
2017-02-17T02:24:43.212Z,1019.72
2017-02-17T02:25:54.649Z,1019.68
2017-02-17T02:27:06.079Z,1019.71
2017-02-17T02:28:17.520Z,1019.66
2017-02-17T02:29:29.158Z,1019.7
2017-02-17T02:30:40.812Z,1019.66
2017-02-17T02:31:52.508Z,1019.64
2017-02-17T02:33:04.155Z,1019.63
2017-02-17T02:34:15.594Z,1019.66
2017-02-17T02:35:27.039Z,1019.56
2017-02-17T02:36:38.496Z,1019.57
2017-02-17T02:37:49.945Z,1019.58
2017-02-17T02:39:01.375Z,1019.61
2017-02-17T02:40:12.820Z,1019.62
2017-02-17T02:41:24.262Z,1019.59
2017-02-17T02:42:35.733Z,1019.59
2017-02-17T02:43:47.184Z,1019.54
2017-02-17T02:44:58.624Z,1019.54
2017-02-17T02:46:10.064Z,1019.55
2017-02-17T02:47:21.488Z,1019.51
2017-02-17T02:48:32.917Z,1019.52
2017-02-17T02:49:44.355Z,1019.49
2017-02-17T02:50:55.804Z,1019.47
2017-02-17T02:52:07.244Z,1019.47
2017-02-17T02:53:18.676Z,1019.43
2017-02-17T02:54:30.154Z,1019.43
2017-02-17T02:55:41.594Z,1019.44
2017-02-17T02:56:53.054Z,1019.37
2017-02-17T02:58:04.489Z,1019.45
2017-02-17T02:59:15.939Z,1019.39
2017-02-17T03:00:27.369Z,1019.43
2017-02-17T03:01:38.818Z,1019.44
2017-02-17T03:02:50.255Z,1019.41
2017-02-17T03:04:01.753Z,1019.34
2017-02-17T03:05:13.204Z,1019.37
2017-02-17T03:06:24.860Z,1019.37
2017-02-17T03:07:36.515Z,1019.35
2017-02-17T03:08:48.159Z,1019.38
2017-02-17T03:09:59.890Z,1019.31
2017-02-17T03:11:11.753Z,1019.33
2017-02-17T03:12:23.381Z,1019.27
2017-02-17T03:13:35.009Z,1019.28
2017-02-17T03:14:46.908Z,1019.29
2017-02-17T03:15:58.358Z,1019.25
2017-02-17T03:17:09.808Z,1019.29
2017-02-17T03:18:21.456Z,1019.3
2017-02-17T03:19:32.886Z,1019.29
2017-02-17T03:20:44.329Z,1019.31
2017-02-17T03:21:55.782Z,1019.25
2017-02-17T03:23:07.267Z,1019.28
2017-02-17T03:24:18.910Z,1019.22
2017-02-17T03:25:30.397Z,1019.19
2017-02-17T03:26:41.850Z,1019.25
2017-02-17T03:27:53.291Z,1019.21
2017-02-17T03:29:04.752Z,1019.19
2017-02-17T03:30:16.191Z,1019.22
2017-02-17T03:31:27.651Z,1019.18
2017-02-17T03:32:39.082Z,1019.21
2017-02-17T03:33:50.508Z,1019.17
2017-02-17T03:35:01.962Z,1019.18
2017-02-17T03:36:13.395Z,1019.16
2017-02-17T03:37:24.871Z,1019.14
2017-02-17T03:38:36.503Z,1019.17
2017-02-17T03:39:48.140Z,1019.12
2017-02-17T03:40:59.578Z,1019.1
2017-02-17T03:42:11.003Z,1019.15
2017-02-17T03:43:22.434Z,1019.13
2017-02-17T03:44:33.885Z,1019.12
2017-02-17T03:45:45.322Z,1019.11
2017-02-17T03:46:56.795Z,1019.12
2017-02-17T03:48:08.235Z,1019.08
2017-02-17T03:49:19.661Z,1019.08
2017-02-17T03:50:31.119Z,1019.06
2017-02-17T03:51:42.565Z,1019.07
2017-02-17T03:52:54.002Z,1019.06
2017-02-17T03:54:05.427Z,1019.05
2017-02-17T03:55:16.876Z,1019.07
2017-02-17T03:56:28.320Z,1019.08
2017-02-17T03:57:39.810Z,1019.07
2017-02-17T03:58:51.446Z,1019.06
2017-02-17T04:00:02.874Z,1019.08
2017-02-17T04:01:14.301Z,1019.05
2017-02-17T04:02:25.761Z,1019
2017-02-17T04:03:37.401Z,1019.03
2017-02-17T04:04:48.846Z,1019.03
2017-02-17T04:06:00.293Z,1019.04
2017-02-17T04:07:11.732Z,1019.08
2017-02-17T04:08:23.231Z,1019.02
2017-02-17T04:09:34.910Z,1018.98
2017-02-17T04:10:46.354Z,1019
2017-02-17T04:11:57.811Z,1018.99
2017-02-17T04:13:09.246Z,1019.02
2017-02-17T04:14:20.698Z,1018.94
2017-02-17T04:15:32.130Z,1018.95
2017-02-17T04:16:43.565Z,1018.9
2017-02-17T04:17:54.986Z,1018.9
2017-02-17T04:19:06.410Z,1018.9
2017-02-17T04:20:17.844Z,1018.93
2017-02-17T04:21:29.484Z,1018.95
2017-02-17T04:22:40.925Z,1018.97
2017-02-17T04:23:52.371Z,1018.93
2017-02-17T04:25:03.825Z,1018.9
2017-02-17T04:26:15.255Z,1018.92
2017-02-17T04:27:26.695Z,1018.93
2017-02-17T04:28:38.145Z,1018.87
2017-02-17T04:29:49.583Z,1018.85
2017-02-17T04:31:01.276Z,1018.82
2017-02-17T04:32:12.725Z,1018.8
2017-02-17T04:33:24.159Z,1018.8
2017-02-17T04:34:35.598Z,1018.77
2017-02-17T04:35:47.061Z,1018.81
2017-02-17T04:36:58.702Z,1018.82
2017-02-17T04:38:10.167Z,1018.8
2017-02-17T04:39:21.607Z,1018.77
2017-02-17T04:40:33.113Z,1018.78
2017-02-17T04:41:44.568Z,1018.75
2017-02-17T04:42:56.007Z,1018.74
2017-02-17T04:44:07.437Z,1018.76
2017-02-17T04:45:19.069Z,1018.74
2017-02-17T04:46:30.711Z,1018.74
2017-02-17T04:47:42.143Z,1018.75
2017-02-17T04:48:53.586Z,1018.72
2017-02-17T04:50:05.041Z,1018.68
2017-02-17T04:51:16.533Z,1018.68
2017-02-17T04:52:28.159Z,1018.65
2017-02-17T04:53:39.621Z,1018.66
2017-02-17T04:54:51.071Z,1018.62
2017-02-17T04:56:02.499Z,1018.63
2017-02-17T04:57:13.980Z,1018.6
2017-02-17T04:58:25.408Z,1018.6
2017-02-17T04:59:37.261Z,1018.58
2017-02-17T05:00:48.681Z,1018.57
2017-02-17T05:02:00.169Z,1018.57
2017-02-17T05:03:11.596Z,1018.58
2017-02-17T05:04:23.436Z,1018.55
2017-02-17T05:05:34.864Z,1018.54
2017-02-17T05:06:46.287Z,1018.5
2017-02-17T05:07:57.973Z,1018.53
2017-02-17T05:09:09.404Z,1018.61
2017-02-17T05:10:20.859Z,1018.5
2017-02-17T05:11:32.491Z,1018.51
2017-02-17T05:12:43.944Z,1018.52
2017-02-17T05:13:55.439Z,1018.48
2017-02-17T05:15:06.870Z,1018.5
2017-02-17T05:16:18.293Z,1018.43
2017-02-17T05:17:29.766Z,1018.45
2017-02-17T05:18:41.206Z,1018.44
2017-02-17T05:19:52.643Z,1018.42
2017-02-17T05:21:04.301Z,1018.42
2017-02-17T05:22:15.742Z,1018.41
2017-02-17T05:23:27.442Z,1018.4
2017-02-17T05:24:38.877Z,1018.42
2017-02-17T05:25:50.517Z,1018.42
2017-02-17T05:27:01.942Z,1018.44
2017-02-17T05:28:13.391Z,1018.39
2017-02-17T05:29:24.833Z,1018.39
2017-02-17T05:30:36.261Z,1018.43
2017-02-17T05:31:47.704Z,1018.36
2017-02-17T05:32:59.140Z,1018.34
2017-02-17T05:34:10.854Z,1018.36
2017-02-17T05:35:22.290Z,1018.38
2017-02-17T05:36:33.719Z,1018.29
2017-02-17T05:37:45.161Z,1018.29
2017-02-17T05:38:56.622Z,1018.26
2017-02-17T05:40:08.240Z,1018.29
2017-02-17T05:41:19.689Z,1018.25
2017-02-17T05:42:31.120Z,1018.21
2017-02-17T05:43:42.571Z,1018.23
2017-02-17T05:44:54.070Z,1018.24
2017-02-17T05:46:05.507Z,1018.22
2017-02-17T05:47:16.967Z,1018.21
2017-02-17T05:48:28.415Z,1018.21
2017-02-17T05:49:40.042Z,1018.19
2017-02-17T05:50:51.458Z,1018.16
2017-02-17T05:52:02.881Z,1018.14
2017-02-17T05:53:14.304Z,1018.2
2017-02-17T05:54:25.946Z,1018.15
2017-02-17T05:55:37.404Z,1018.22
2017-02-17T05:56:48.832Z,1018.17
2017-02-17T05:58:00.487Z,1018.17
2017-02-17T05:59:11.934Z,1018.14
2017-02-17T06:00:23.382Z,1018.1
2017-02-17T06:01:34.824Z,1018.13
2017-02-17T06:02:46.523Z,1018.13
2017-02-17T06:03:57.974Z,1018.17
2017-02-17T06:05:09.426Z,1018.1
2017-02-17T06:06:20.850Z,1018.15
2017-02-17T06:07:32.287Z,1018.12
2017-02-17T06:08:43.729Z,1018.15
2017-02-17T06:09:55.164Z,1018.09
2017-02-17T06:11:06.810Z,1018.13
2017-02-17T06:12:18.296Z,1018.14
2017-02-17T06:13:29.729Z,1018.14
2017-02-17T06:14:41.154Z,1018.15
2017-02-17T06:15:52.599Z,1018.13
2017-02-17T06:17:04.030Z,1018.21
2017-02-17T06:18:15.471Z,1018.17
2017-02-17T06:19:26.921Z,1018.2
2017-02-17T06:20:38.372Z,1018.2
2017-02-17T06:21:49.819Z,1018.2
2017-02-17T06:23:01.543Z,1018.16
2017-02-17T06:24:13.171Z,1018.18
2017-02-17T06:25:24.625Z,1018.18
2017-02-17T06:26:36.077Z,1018.18
2017-02-17T06:27:47.760Z,1018.21
2017-02-17T06:28:59.204Z,1018.23
2017-02-17T06:30:10.647Z,1018.19
2017-02-17T06:31:22.289Z,1018.23
2017-02-17T06:32:33.990Z,1018.21
2017-02-17T06:33:45.453Z,1018.26
2017-02-17T06:34:56.889Z,1018.21
2017-02-17T06:36:08.328Z,1018.2
2017-02-17T06:37:19.781Z,1018.2
2017-02-17T06:38:31.234Z,1018.24
2017-02-17T06:39:42.662Z,1018.23
2017-02-17T06:40:54.108Z,1018.29
2017-02-17T06:42:05.765Z,1018.26
2017-02-17T06:43:17.190Z,1018.3
2017-02-17T06:44:28.637Z,1018.26
2017-02-17T06:45:40.326Z,1018.25
2017-02-17T06:46:51.768Z,1018.25
2017-02-17T06:48:03.202Z,1018.16
2017-02-17T06:49:14.647Z,1018.2
2017-02-17T06:50:26.087Z,1018.16
2017-02-17T06:51:37.731Z,1018.23
2017-02-17T06:52:49.158Z,1018.13
2017-02-17T06:54:00.791Z,1018.16
2017-02-17T06:55:12.275Z,1018.19
2017-02-17T06:56:23.709Z,1018.26
2017-02-17T06:57:35.134Z,1018.27
2017-02-17T06:58:46.566Z,1018.31
2017-02-17T06:59:57.986Z,1018.27
2017-02-17T07:01:09.407Z,1018.24
2017-02-17T07:02:20.848Z,1018.26
2017-02-17T07:03:32.298Z,1018.31
2017-02-17T07:04:43.789Z,1018.29
2017-02-17T07:05:55.290Z,1018.3
2017-02-17T07:07:06.722Z,1018.27
2017-02-17T07:08:18.157Z,1018.33
2017-02-17T07:09:29.591Z,1018.28
2017-02-17T07:10:41.036Z,1018.32
2017-02-17T07:11:52.529Z,1018.35
2017-02-17T07:13:03.969Z,1018.31
2017-02-17T07:14:15.409Z,1018.35
2017-02-17T07:15:26.849Z,1018.31
2017-02-17T07:16:38.302Z,1018.34
2017-02-17T07:17:49.808Z,1018.35
2017-02-17T07:19:01.460Z,1018.33
2017-02-17T07:20:12.896Z,1018.37
2017-02-17T07:21:24.543Z,1018.37
2017-02-17T07:22:36.197Z,1018.36
2017-02-17T07:23:47.846Z,1018.33
2017-02-17T07:24:59.482Z,1018.31
2017-02-17T07:26:10.942Z,1018.32
2017-02-17T07:27:22.382Z,1018.38
2017-02-17T07:28:33.873Z,1018.38
2017-02-17T07:29:45.304Z,1018.35
2017-02-17T07:30:56.752Z,1018.39
2017-02-17T07:32:08.220Z,1018.37
2017-02-17T07:33:19.704Z,1018.38
2017-02-17T07:34:31.347Z,1018.35
2017-02-17T07:35:42.783Z,1018.32
2017-02-17T07:36:54.437Z,1018.39
2017-02-17T07:38:05.948Z,1018.33
2017-02-17T07:39:17.575Z,1018.39
2017-02-17T07:40:29.012Z,1018.36
2017-02-17T07:41:40.457Z,1018.35
2017-02-17T07:42:51.887Z,1018.37
2017-02-17T07:44:03.334Z,1018.35
2017-02-17T07:45:14.778Z,1018.33
2017-02-17T07:46:26.223Z,1018.34
2017-02-17T07:47:37.681Z,1018.31
2017-02-17T07:48:49.370Z,1018.29
2017-02-17T07:50:00.816Z,1018.27
2017-02-17T07:51:12.288Z,1018.22
2017-02-17T07:52:23.725Z,1018.22
2017-02-17T07:53:35.166Z,1018.21
2017-02-17T07:54:46.597Z,1018.25
2017-02-17T07:55:58.043Z,1018.22
2017-02-17T07:57:09.676Z,1018.28
2017-02-17T07:58:21.316Z,1018.27
2017-02-17T07:59:32.781Z,1018.32
2017-02-17T08:00:44.219Z,1018.35
2017-02-17T08:01:55.654Z,1018.31
2017-02-17T08:03:07.079Z,1018.32
2017-02-17T08:04:18.534Z,1018.28
2017-02-17T08:05:29.978Z,1018.23
2017-02-17T08:06:41.432Z,1018.29
2017-02-17T08:07:52.871Z,1018.27
2017-02-17T08:09:04.311Z,1018.26
2017-02-17T08:10:15.771Z,1018.29
2017-02-17T08:11:27.288Z,1018.28
2017-02-17T08:12:38.720Z,1018.29
2017-02-17T08:13:50.379Z,1018.27
2017-02-17T08:15:01.822Z,1018.31
2017-02-17T08:16:13.251Z,1018.33
2017-02-17T08:17:24.684Z,1018.36
2017-02-17T08:18:36.138Z,1018.33
2017-02-17T08:19:47.772Z,1018.31
2017-02-17T08:20:59.247Z,1018.33
2017-02-17T08:22:10.678Z,1018.29
2017-02-17T08:23:22.123Z,1018.27
2017-02-17T08:24:33.541Z,1018.29
2017-02-17T08:25:44.975Z,1018.32
2017-02-17T08:26:56.606Z,1018.38
2017-02-17T08:28:08.058Z,1018.31
2017-02-17T08:29:19.499Z,1018.34
2017-02-17T08:30:30.940Z,1018.28
2017-02-17T08:31:42.629Z,1018.22
2017-02-17T08:32:54.076Z,1018.25
2017-02-17T08:34:05.512Z,1018.3
2017-02-17T08:35:16.947Z,1018.25
2017-02-17T08:36:28.600Z,1018.35
2017-02-17T08:37:40.049Z,1018.29
2017-02-17T08:38:51.503Z,1018.32
2017-02-17T08:40:02.957Z,1018.28
2017-02-17T08:41:14.387Z,1018.24
2017-02-17T08:42:25.839Z,1018.22
2017-02-17T08:43:37.280Z,1018.25
2017-02-17T08:44:48.930Z,1018.28
2017-02-17T08:46:00.400Z,1018.35
2017-02-17T08:47:11.872Z,1018.33
2017-02-17T08:48:23.313Z,1018.32
2017-02-17T08:49:34.806Z,1018.37
2017-02-17T08:50:46.268Z,1018.33
2017-02-17T08:51:57.724Z,1018.29
2017-02-17T08:53:09.370Z,1018.37
2017-02-17T08:54:20.867Z,1018.35
2017-02-17T08:55:32.513Z,1018.43
2017-02-17T08:56:44.361Z,1018.41
2017-02-17T08:57:55.815Z,1018.41
2017-02-17T08:59:07.465Z,1018.41
2017-02-17T09:00:18.911Z,1018.4
2017-02-17T09:01:30.353Z,1018.43
2017-02-17T09:02:41.780Z,1018.42
2017-02-17T09:03:53.273Z,1018.4
2017-02-17T09:05:04.768Z,1018.41
2017-02-17T09:06:16.237Z,1018.4
2017-02-17T09:07:27.923Z,1018.44
2017-02-17T09:08:39.359Z,1018.45
2017-02-17T09:09:50.803Z,1018.47
2017-02-17T09:11:02.233Z,1018.51
2017-02-17T09:12:13.880Z,1018.45
2017-02-17T09:13:25.336Z,1018.48
2017-02-17T09:14:36.825Z,1018.48
2017-02-17T09:15:48.475Z,1018.43
2017-02-17T09:16:59.912Z,1018.43
2017-02-17T09:18:11.334Z,1018.44
2017-02-17T09:19:22.795Z,1018.44
2017-02-17T09:20:34.247Z,1018.44
2017-02-17T09:21:45.695Z,1018.49
2017-02-17T09:22:57.127Z,1018.52
2017-02-17T09:24:08.558Z,1018.53
2017-02-17T09:25:20.055Z,1018.59
2017-02-17T09:26:31.530Z,1018.55
2017-02-17T09:27:42.979Z,1018.57
2017-02-17T09:28:54.416Z,1018.52
2017-02-17T09:30:05.843Z,1018.56
2017-02-17T09:31:17.308Z,1018.6
2017-02-17T09:32:28.762Z,1018.63
2017-02-17T09:33:40.203Z,1018.59
2017-02-17T09:34:51.627Z,1018.61
2017-02-17T09:36:03.061Z,1018.6
2017-02-17T09:37:14.539Z,1018.56
2017-02-17T09:38:25.972Z,1018.65
2017-02-17T09:39:37.418Z,1018.59
2017-02-17T09:40:49.050Z,1018.6
2017-02-17T09:42:00.694Z,1018.59
2017-02-17T09:43:12.144Z,1018.59
2017-02-17T09:44:23.580Z,1018.59
2017-02-17T09:45:35.038Z,1018.63
2017-02-17T09:46:46.486Z,1018.61
2017-02-17T09:47:58.118Z,1018.64
2017-02-17T09:49:09.753Z,1018.65
2017-02-17T09:50:21.397Z,1018.64
2017-02-17T09:51:33.033Z,1018.63
2017-02-17T09:52:44.543Z,1018.57
2017-02-17T09:53:56.178Z,1018.58
2017-02-17T09:55:07.611Z,1018.64
2017-02-17T09:56:19.252Z,1018.7
2017-02-17T09:57:30.678Z,1018.65
2017-02-17T09:58:42.114Z,1018.64
2017-02-17T09:59:53.545Z,1018.66
2017-02-17T10:01:04.993Z,1018.63
2017-02-17T10:02:16.881Z,1018.63
2017-02-17T10:03:28.307Z,1018.61
2017-02-17T10:04:39.980Z,1018.67
2017-02-17T10:05:51.613Z,1018.71
2017-02-17T10:07:03.297Z,1018.71
2017-02-17T10:08:14.782Z,1018.7
2017-02-17T10:09:26.446Z,1018.69
2017-02-17T10:10:38.089Z,1018.71
2017-02-17T10:11:49.741Z,1018.71
2017-02-17T10:13:01.369Z,1018.72
2017-02-17T10:14:12.803Z,1018.73
2017-02-17T10:15:24.252Z,1018.75
2017-02-17T10:16:35.690Z,1018.74
2017-02-17T10:17:47.138Z,1018.74
2017-02-17T10:18:58.564Z,1018.74
2017-02-17T10:20:10.051Z,1018.74
2017-02-17T10:21:21.505Z,1018.71
2017-02-17T10:22:33.137Z,1018.78
2017-02-17T10:23:44.586Z,1018.76
2017-02-17T10:24:56.016Z,1018.79
2017-02-17T10:26:07.459Z,1018.82
2017-02-17T10:27:19.104Z,1018.79
2017-02-17T10:28:30.545Z,1018.82
2017-02-17T10:29:42.253Z,1018.81
2017-02-17T10:30:53.731Z,1018.81
2017-02-17T10:32:05.180Z,1018.84
2017-02-17T10:33:16.629Z,1018.85
2017-02-17T10:34:28.090Z,1018.84
2017-02-17T10:35:39.527Z,1018.89
2017-02-17T10:36:50.970Z,1018.94
2017-02-17T10:38:02.417Z,1018.88
2017-02-17T10:39:13.845Z,1018.85
2017-02-17T10:40:25.350Z,1018.84
2017-02-17T10:41:36.788Z,1018.86
2017-02-17T10:42:48.214Z,1018.86
2017-02-17T10:43:59.665Z,1018.88
2017-02-17T10:45:11.106Z,1018.86
2017-02-17T10:46:22.582Z,1018.86
2017-02-17T10:47:34.422Z,1018.91
2017-02-17T10:48:45.862Z,1018.83
2017-02-17T10:49:57.289Z,1018.88
2017-02-17T10:51:08.972Z,1018.85
2017-02-17T10:52:20.407Z,1018.9
2017-02-17T10:53:31.875Z,1018.9
2017-02-17T10:54:43.348Z,1018.89
2017-02-17T10:55:54.786Z,1018.89
2017-02-17T10:57:06.228Z,1018.94
2017-02-17T10:58:17.669Z,1018.94
2017-02-17T10:59:29.131Z,1018.91
2017-02-17T11:00:40.572Z,1018.89
2017-02-17T11:01:52.006Z,1018.92
2017-02-17T11:03:03.489Z,1018.88
2017-02-17T11:04:15.147Z,1018.94
2017-02-17T11:05:26.587Z,1018.92
2017-02-17T11:06:38.037Z,1018.94
2017-02-17T11:07:49.481Z,1018.99
2017-02-17T11:09:01.111Z,1018.99
2017-02-17T11:10:12.554Z,1018.92
2017-02-17T11:11:24.199Z,1018.96
2017-02-17T11:12:35.695Z,1019.01
2017-02-17T11:13:47.328Z,1018.92
2017-02-17T11:14:58.756Z,1018.97
2017-02-17T11:16:10.195Z,1018.95
2017-02-17T11:17:21.624Z,1018.92
2017-02-17T11:18:33.076Z,1018.99
2017-02-17T11:19:44.527Z,1018.97
2017-02-17T11:20:55.971Z,1018.93
2017-02-17T11:22:07.399Z,1018.98
2017-02-17T11:23:18.882Z,1018.96
2017-02-17T11:24:30.305Z,1018.95
2017-02-17T11:25:41.768Z,1018.93
2017-02-17T11:26:53.208Z,1018.9
2017-02-17T11:28:04.653Z,1018.91
2017-02-17T11:29:16.285Z,1018.88
2017-02-17T11:30:27.728Z,1018.91
2017-02-17T11:31:39.165Z,1018.94
2017-02-17T11:32:50.642Z,1018.94
2017-02-17T11:34:02.143Z,1018.95
2017-02-17T11:35:13.571Z,1018.87
2017-02-17T11:36:25.214Z,1018.9
2017-02-17T11:37:36.641Z,1018.87
2017-02-17T11:38:48.101Z,1018.91
2017-02-17T11:39:59.536Z,1018.89
2017-02-17T11:41:10.973Z,1018.89
2017-02-17T11:42:22.647Z,1018.91
2017-02-17T11:43:34.078Z,1018.89
2017-02-17T11:44:45.514Z,1018.9
2017-02-17T11:45:56.998Z,1018.89
2017-02-17T11:47:08.861Z,1018.89
2017-02-17T11:48:20.299Z,1018.96
2017-02-17T11:49:31.760Z,1018.99
2017-02-17T11:50:43.403Z,1018.96
2017-02-17T11:51:54.842Z,1018.88
2017-02-17T11:53:06.473Z,1018.86
2017-02-17T11:54:18.114Z,1018.85
2017-02-17T11:55:29.604Z,1018.83
2017-02-17T11:56:41.044Z,1018.86
2017-02-17T11:57:52.511Z,1018.87
2017-02-17T11:59:03.954Z,1018.82
2017-02-17T12:00:15.399Z,1018.84
2017-02-17T12:01:26.851Z,1018.82
2017-02-17T12:02:38.290Z,1018.83
2017-02-17T12:03:49.755Z,1018.81
2017-02-17T12:05:01.415Z,1018.85
2017-02-17T12:06:12.912Z,1018.86
2017-02-17T12:07:24.355Z,1018.82
2017-02-17T12:08:35.820Z,1018.79
2017-02-17T12:09:47.264Z,1018.82
2017-02-17T12:10:58.700Z,1018.8
2017-02-17T12:12:10.151Z,1018.72
2017-02-17T12:13:21.590Z,1018.77
2017-02-17T12:14:33.043Z,1018.76
2017-02-17T12:15:44.482Z,1018.69
2017-02-17T12:16:55.982Z,1018.69
2017-02-17T12:18:07.430Z,1018.67
2017-02-17T12:19:19.107Z,1018.69
2017-02-17T12:20:30.544Z,1018.7
2017-02-17T12:21:41.996Z,1018.76
2017-02-17T12:22:53.483Z,1018.77
2017-02-17T12:24:04.919Z,1018.84
2017-02-17T12:25:16.352Z,1018.83
2017-02-17T12:26:27.984Z,1018.82
2017-02-17T12:27:39.438Z,1018.77
2017-02-17T12:28:50.881Z,1018.76
2017-02-17T12:30:02.324Z,1018.73
2017-02-17T12:31:13.797Z,1018.69
2017-02-17T12:32:25.244Z,1018.74
2017-02-17T12:33:36.732Z,1018.72
2017-02-17T12:34:48.581Z,1018.7
2017-02-17T12:36:00.021Z,1018.69
2017-02-17T12:37:11.501Z,1018.74
2017-02-17T12:38:22.967Z,1018.73
2017-02-17T12:39:34.400Z,1018.73
2017-02-17T12:40:46.065Z,1018.73
2017-02-17T12:41:57.499Z,1018.79
2017-02-17T12:43:09.135Z,1018.77
2017-02-17T12:44:20.631Z,1018.77
2017-02-17T12:45:32.061Z,1018.73
2017-02-17T12:46:43.501Z,1018.74
2017-02-17T12:47:54.965Z,1018.75
2017-02-17T12:49:06.416Z,1018.77
2017-02-17T12:50:17.846Z,1018.83
2017-02-17T12:51:29.281Z,1018.74
2017-02-17T12:52:40.717Z,1018.74
2017-02-17T12:53:52.177Z,1018.82
2017-02-17T12:55:03.681Z,1018.75
2017-02-17T12:56:15.150Z,1018.76
2017-02-17T12:57:26.618Z,1018.75
2017-02-17T12:58:38.076Z,1018.75
2017-02-17T12:59:49.506Z,1018.73
2017-02-17T13:01:00.974Z,1018.76
2017-02-17T13:02:12.424Z,1018.78
2017-02-17T13:03:23.867Z,1018.81
2017-02-17T13:04:35.292Z,1018.79
2017-02-17T13:05:46.767Z,1018.79
2017-02-17T13:06:58.217Z,1018.78
2017-02-17T13:08:09.655Z,1018.78
2017-02-17T13:09:21.106Z,1018.77
2017-02-17T13:10:32.540Z,1018.78
2017-02-17T13:11:44.216Z,1018.78
2017-02-17T13:12:55.687Z,1018.82
2017-02-17T13:14:07.345Z,1018.86
2017-02-17T13:15:18.995Z,1018.83
2017-02-17T13:16:30.436Z,1018.88
2017-02-17T13:17:41.933Z,1018.85
2017-02-17T13:18:53.384Z,1018.88
2017-02-17T13:20:04.836Z,1018.92
2017-02-17T13:21:16.291Z,1018.92
2017-02-17T13:22:27.945Z,1018.86
2017-02-17T13:23:39.401Z,1018.91
2017-02-17T13:24:50.843Z,1018.91
2017-02-17T13:26:02.285Z,1018.89
2017-02-17T13:27:13.787Z,1018.93
2017-02-17T13:28:25.232Z,1018.98
2017-02-17T13:29:36.676Z,1018.97
2017-02-17T13:30:48.334Z,1018.95
2017-02-17T13:31:59.803Z,1018.93
2017-02-17T13:33:11.249Z,1018.95
2017-02-17T13:34:22.906Z,1018.96
2017-02-17T13:35:34.338Z,1018.98
2017-02-17T13:36:45.794Z,1018.96
2017-02-17T13:37:57.293Z,1018.91
2017-02-17T13:39:08.950Z,1018.88
2017-02-17T13:40:20.392Z,1018.94
2017-02-17T13:41:31.833Z,1018.93
2017-02-17T13:42:43.285Z,1018.92
2017-02-17T13:43:54.927Z,1018.95
2017-02-17T13:45:06.763Z,1018.93
2017-02-17T13:46:18.200Z,1018.9
2017-02-17T13:47:29.849Z,1018.95
2017-02-17T13:48:41.347Z,1018.97
2017-02-17T13:49:52.781Z,1019.02
2017-02-17T13:51:04.209Z,1019.01
2017-02-17T13:52:15.858Z,1018.99
2017-02-17T13:53:27.487Z,1019.04
2017-02-17T13:54:39.179Z,1019.08
2017-02-17T13:55:50.826Z,1019.08
2017-02-17T13:57:02.292Z,1019.1
2017-02-17T13:58:13.731Z,1019.07
2017-02-17T13:59:25.192Z,1019.08
2017-02-17T14:00:36.620Z,1019.1
2017-02-17T14:01:48.281Z,1019.09
2017-02-17T14:02:59.719Z,1019.09
2017-02-17T14:04:11.407Z,1019.11
2017-02-17T14:05:22.856Z,1019.1
2017-02-17T14:06:34.313Z,1019.12
2017-02-17T14:07:45.762Z,1019.1
2017-02-17T14:08:57.232Z,1019.07
2017-02-17T14:10:08.726Z,1019.08
2017-02-17T14:11:20.170Z,1019.13
2017-02-17T14:12:31.617Z,1019.13
2017-02-17T14:13:43.244Z,1019.13
2017-02-17T14:14:54.737Z,1019.18
2017-02-17T14:16:06.179Z,1019.15
2017-02-17T14:17:17.611Z,1019.15
2017-02-17T14:18:29.237Z,1019.18
2017-02-17T14:19:40.676Z,1019.19
2017-02-17T14:20:52.117Z,1019.15
2017-02-17T14:22:03.747Z,1019.22
2017-02-17T14:23:15.206Z,1019.25
2017-02-17T14:24:26.650Z,1019.21
2017-02-17T14:25:38.336Z,1019.22
2017-02-17T14:26:49.768Z,1019.23